sensor_id;sensor_type;location;lat;lon;timestamp;P1;durP1;ratioP1;P2;durP2;ratioP2
8293;SDS011;4185;41.506;24.938;2023-12-29T00:00:23;16.57;;;8.43;;
8293;SDS011;4185;41.506;24.938;2023-12-29T00:02:50;14.77;;;8.93;;
8293;SDS011;4185;41.506;24.938;2023-12-29T00:05:17;16.70;;;7.23;;
8293;SDS011;4185;41.506;24.938;2023-12-29T00:07:43;15.10;;;8.77;;
8293;SDS011;4185;41.506;24.938;2023-12-29T00:10:10;12.97;;;7.37;;
8293;SDS011;4185;41.506;24.938;2023-12-29T00:12:37;18.23;;;8.20;;
8293;SDS011;4185;41.506;24.938;2023-12-29T00:15:06;19.90;;;9.83;;
8293;SDS011;4185;41.506;24.938;2023-12-29T00:17:33;22.03;;;8.97;;
8293;SDS011;4185;41.506;24.938;2023-12-29T00:20:02;16.67;;;8.63;;
8293;SDS011;4185;41.506;24.938;2023-12-29T00:22:29;15.60;;;6.97;;
8293;SDS011;4185;41.506;24.938;2023-12-29T00:24:56;11.10;;;7.40;;
8293;SDS011;4185;41.506;24.938;2023-12-29T00:27:23;12.30;;;7.10;;
8293;SDS011;4185;41.506;24.938;2023-12-29T00:29:50;18.13;;;9.87;;
8293;SDS011;4185;41.506;24.938;2023-12-29T00:32:18;13.07;;;7.33;;
8293;SDS011;4185;41.506;24.938;2023-12-29T00:34:45;13.37;;;7.83;;
8293;SDS011;4185;41.506;24.938;2023-12-29T00:37:11;13.23;;;7.57;;
8293;SDS011;4185;41.506;24.938;2023-12-29T00:39:38;12.00;;;7.10;;
8293;SDS011;4185;41.506;24.938;2023-12-29T00:42:05;15.07;;;10.07;;
8293;SDS011;4185;41.506;24.938;2023-12-29T00:44:32;13.30;;;6.13;;
8293;SDS011;4185;41.506;24.938;2023-12-29T00:47:00;11.67;;;6.10;;
8293;SDS011;4185;41.506;24.938;2023-12-29T00:49:28;9.63;;;5.13;;
8293;SDS011;4185;41.506;24.938;2023-12-29T00:51:55;9.40;;;5.23;;
8293;SDS011;4185;41.506;24.938;2023-12-29T00:54:22;20.03;;;9.30;;
8293;SDS011;4185;41.506;24.938;2023-12-29T00:56:48;12.97;;;7.30;;
8293;SDS011;4185;41.506;24.938;2023-12-29T00:59:15;16.23;;;5.90;;
8293;SDS011;4185;41.506;24.938;2023-12-29T01:01:44;11.90;;;5.97;;
8293;SDS011;4185;41.506;24.938;2023-12-29T01:04:11;13.37;;;6.80;;
8293;SDS011;4185;41.506;24.938;2023-12-29T01:06:39;13.73;;;6.17;;
8293;SDS011;4185;41.506;24.938;2023-12-29T01:09:06;12.57;;;6.67;;
8293;SDS011;4185;41.506;24.938;2023-12-29T01:11:34;13.60;;;8.00;;
8293;SDS011;4185;41.506;24.938;2023-12-29T01:14:00;11.97;;;7.17;;
8293;SDS011;4185;41.506;24.938;2023-12-29T01:16:27;11.80;;;6.60;;
8293;SDS011;4185;41.506;24.938;2023-12-29T01:18:54;12.63;;;7.20;;
8293;SDS011;4185;41.506;24.938;2023-12-29T01:21:21;15.93;;;7.30;;
8293;SDS011;4185;41.506;24.938;2023-12-29T01:23:49;13.57;;;6.67;;
8293;SDS011;4185;41.506;24.938;2023-12-29T01:26:16;12.77;;;6.87;;
8293;SDS011;4185;41.506;24.938;2023-12-29T01:28:42;10.77;;;6.73;;
8293;SDS011;4185;41.506;24.938;2023-12-29T01:31:09;11.93;;;7.00;;
8293;SDS011;4185;41.506;24.938;2023-12-29T01:33:38;15.60;;;6.37;;
8293;SDS011;4185;41.506;24.938;2023-12-29T01:36:05;7.23;;;4.97;;
8293;SDS011;4185;41.506;24.938;2023-12-29T01:38:32;11.37;;;6.40;;
8293;SDS011;4185;41.506;24.938;2023-12-29T01:41:00;11.10;;;6.23;;
8293;SDS011;4185;41.506;24.938;2023-12-29T01:43:28;10.70;;;6.70;;
8293;SDS011;4185;41.506;24.938;2023-12-29T01:45:55;10.20;;;6.07;;
8293;SDS011;4185;41.506;24.938;2023-12-29T01:48:22;10.73;;;6.10;;
8293;SDS011;4185;41.506;24.938;2023-12-29T01:50:50;14.20;;;7.57;;
8293;SDS011;4185;41.506;24.938;2023-12-29T01:53:18;12.53;;;5.90;;
8293;SDS011;4185;41.506;24.938;2023-12-29T01:55:45;8.50;;;4.93;;
8293;SDS011;4185;41.506;24.938;2023-12-29T01:58:13;8.30;;;4.60;;
8293;SDS011;4185;41.506;24.938;2023-12-29T02:00:41;7.23;;;5.17;;
8293;SDS011;4185;41.506;24.938;2023-12-29T02:03:08;6.00;;;4.60;;
8293;SDS011;4185;41.506;24.938;2023-12-29T02:05:35;8.57;;;5.23;;
8293;SDS011;4185;41.506;24.938;2023-12-29T02:08:02;6.07;;;5.10;;
8293;SDS011;4185;41.506;24.938;2023-12-29T02:10:29;8.63;;;5.17;;
8293;SDS011;4185;41.506;24.938;2023-12-29T02:12:57;6.03;;;4.70;;
8293;SDS011;4185;41.506;24.938;2023-12-29T02:15:26;4.30;;;3.77;;
8293;SDS011;4185;41.506;24.938;2023-12-29T02:17:56;7.87;;;5.93;;
8293;SDS011;4185;41.506;24.938;2023-12-29T02:20:27;8.23;;;5.97;;
8293;SDS011;4185;41.506;24.938;2023-12-29T02:22:55;8.10;;;5.90;;
8293;SDS011;4185;41.506;24.938;2023-12-29T02:25:23;7.57;;;5.20;;
8293;SDS011;4185;41.506;24.938;2023-12-29T02:27:51;9.23;;;6.00;;
8293;SDS011;4185;41.506;24.938;2023-12-29T02:30:25;5.33;;;4.63;;
8293;SDS011;4185;41.506;24.938;2023-12-29T02:32:57;11.17;;;6.10;;
8293;SDS011;4185;41.506;24.938;2023-12-29T02:35:27;9.37;;;6.37;;
8293;SDS011;4185;41.506;24.938;2023-12-29T02:37:55;9.50;;;5.43;;
8293;SDS011;4185;41.506;24.938;2023-12-29T02:40:24;8.30;;;5.33;;
8293;SDS011;4185;41.506;24.938;2023-12-29T02:42:51;8.23;;;6.00;;
8293;SDS011;4185;41.506;24.938;2023-12-29T02:45:18;11.17;;;6.90;;
8293;SDS011;4185;41.506;24.938;2023-12-29T02:47:45;9.40;;;5.60;;
8293;SDS011;4185;41.506;24.938;2023-12-29T02:50:12;7.87;;;5.63;;
8293;SDS011;4185;41.506;24.938;2023-12-29T02:52:39;14.30;;;6.80;;
8293;SDS011;4185;41.506;24.938;2023-12-29T02:55:06;10.77;;;7.07;;
8293;SDS011;4185;41.506;24.938;2023-12-29T02:57:35;11.33;;;5.83;;
8293;SDS011;4185;41.506;24.938;2023-12-29T03:00:02;9.80;;;5.83;;
8293;SDS011;4185;41.506;24.938;2023-12-29T03:02:29;10.60;;;6.70;;
8293;SDS011;4185;41.506;24.938;2023-12-29T03:04:56;35.47;;;16.43;;
8293;SDS011;4185;41.506;24.938;2023-12-29T03:07:23;27.77;;;16.83;;
8293;SDS011;4185;41.506;24.938;2023-12-29T03:09:50;13.43;;;6.27;;
8293;SDS011;4185;41.506;24.938;2023-12-29T03:12:16;10.30;;;6.73;;
8293;SDS011;4185;41.506;24.938;2023-12-29T03:14:45;7.23;;;4.93;;
8293;SDS011;4185;41.506;24.938;2023-12-29T03:17:12;14.33;;;8.40;;
8293;SDS011;4185;41.506;24.938;2023-12-29T03:19:39;14.43;;;9.30;;
8293;SDS011;4185;41.506;24.938;2023-12-29T03:22:06;16.40;;;8.40;;
8293;SDS011;4185;41.506;24.938;2023-12-29T03:24:32;14.40;;;9.33;;
8293;SDS011;4185;41.506;24.938;2023-12-29T03:26:59;8.77;;;5.70;;
8293;SDS011;4185;41.506;24.938;2023-12-29T03:29:26;11.30;;;6.20;;
8293;SDS011;4185;41.506;24.938;2023-12-29T03:31:54;8.37;;;6.37;;
8293;SDS011;4185;41.506;24.938;2023-12-29T03:34:21;8.77;;;6.07;;
8293;SDS011;4185;41.506;24.938;2023-12-29T03:36:48;7.73;;;5.03;;
8293;SDS011;4185;41.506;24.938;2023-12-29T03:39:14;9.13;;;5.83;;
8293;SDS011;4185;41.506;24.938;2023-12-29T03:41:41;8.67;;;5.07;;
8293;SDS011;4185;41.506;24.938;2023-12-29T03:44:08;12.40;;;5.50;;
8293;SDS011;4185;41.506;24.938;2023-12-29T03:46:35;7.17;;;4.63;;
8293;SDS011;4185;41.506;24.938;2023-12-29T03:49:03;8.10;;;5.23;;
8293;SDS011;4185;41.506;24.938;2023-12-29T03:51:30;6.40;;;5.00;;
8293;SDS011;4185;41.506;24.938;2023-12-29T03:53:57;10.73;;;6.50;;
8293;SDS011;4185;41.506;24.938;2023-12-29T03:56:24;5.53;;;4.90;;
8293;SDS011;4185;41.506;24.938;2023-12-29T03:58:51;8.33;;;4.43;;
8293;SDS011;4185;41.506;24.938;2023-12-29T04:01:17;9.73;;;6.27;;
8293;SDS011;4185;41.506;24.938;2023-12-29T04:03:45;6.70;;;5.47;;
8293;SDS011;4185;41.506;24.938;2023-12-29T04:06:13;10.33;;;6.80;;
8293;SDS011;4185;41.506;24.938;2023-12-29T04:08:40;9.97;;;8.53;;
8293;SDS011;4185;41.506;24.938;2023-12-29T04:11:07;10.53;;;8.30;;
8293;SDS011;4185;41.506;24.938;2023-12-29T04:13:34;9.90;;;6.90;;
8293;SDS011;4185;41.506;24.938;2023-12-29T04:16:00;9.67;;;6.43;;
8293;SDS011;4185;41.506;24.938;2023-12-29T04:18:28;9.13;;;6.17;;
8293;SDS011;4185;41.506;24.938;2023-12-29T04:20:54;13.97;;;8.37;;
8293;SDS011;4185;41.506;24.938;2023-12-29T04:23:23;9.67;;;6.23;;
8293;SDS011;4185;41.506;24.938;2023-12-29T04:25:49;7.63;;;5.53;;
8293;SDS011;4185;41.506;24.938;2023-12-29T04:28:16;9.60;;;6.70;;
8293;SDS011;4185;41.506;24.938;2023-12-29T04:30:43;10.00;;;6.20;;
8293;SDS011;4185;41.506;24.938;2023-12-29T04:33:10;6.27;;;5.40;;
8293;SDS011;4185;41.506;24.938;2023-12-29T04:35:37;8.57;;;5.37;;
8293;SDS011;4185;41.506;24.938;2023-12-29T04:38:03;6.47;;;5.10;;
8293;SDS011;4185;41.506;24.938;2023-12-29T04:40:32;9.43;;;5.73;;
8293;SDS011;4185;41.506;24.938;2023-12-29T04:42:59;5.47;;;4.97;;
8293;SDS011;4185;41.506;24.938;2023-12-29T04:45:26;8.43;;;5.43;;
8293;SDS011;4185;41.506;24.938;2023-12-29T04:47:54;12.50;;;6.60;;
8293;SDS011;4185;41.506;24.938;2023-12-29T04:50:20;12.77;;;8.27;;
8293;SDS011;4185;41.506;24.938;2023-12-29T04:52:47;12.57;;;7.90;;
8293;SDS011;4185;41.506;24.938;2023-12-29T04:55:14;11.43;;;8.43;;
8293;SDS011;4185;41.506;24.938;2023-12-29T04:57:42;14.27;;;8.30;;
8293;SDS011;4185;41.506;24.938;2023-12-29T05:00:09;13.10;;;9.00;;
8293;SDS011;4185;41.506;24.938;2023-12-29T05:02:37;12.77;;;8.57;;
8293;SDS011;4185;41.506;24.938;2023-12-29T05:05:05;17.70;;;11.40;;
8293;SDS011;4185;41.506;24.938;2023-12-29T05:07:32;19.13;;;11.13;;
8293;SDS011;4185;41.506;24.938;2023-12-29T05:09:58;13.67;;;8.90;;
8293;SDS011;4185;41.506;24.938;2023-12-29T05:12:25;13.33;;;9.10;;
8293;SDS011;4185;41.506;24.938;2023-12-29T05:14:53;11.20;;;7.03;;
8293;SDS011;4185;41.506;24.938;2023-12-29T05:17:20;13.43;;;8.60;;
8293;SDS011;4185;41.506;24.938;2023-12-29T05:19:47;15.37;;;9.80;;
8293;SDS011;4185;41.506;24.938;2023-12-29T05:22:14;19.73;;;11.10;;
8293;SDS011;4185;41.506;24.938;2023-12-29T05:24:42;17.43;;;9.93;;
8293;SDS011;4185;41.506;24.938;2023-12-29T05:27:10;11.50;;;8.70;;
8293;SDS011;4185;41.506;24.938;2023-12-29T05:29:37;10.87;;;7.47;;
8293;SDS011;4185;41.506;24.938;2023-12-29T05:32:06;13.87;;;8.00;;
8293;SDS011;4185;41.506;24.938;2023-12-29T05:34:33;12.83;;;9.73;;
8293;SDS011;4185;41.506;24.938;2023-12-29T05:37:00;25.97;;;13.37;;
8293;SDS011;4185;41.506;24.938;2023-12-29T05:39:27;42.80;;;23.00;;
8293;SDS011;4185;41.506;24.938;2023-12-29T05:41:54;47.73;;;23.57;;
8293;SDS011;4185;41.506;24.938;2023-12-29T05:44:21;36.90;;;20.63;;
8293;SDS011;4185;41.506;24.938;2023-12-29T05:46:48;54.90;;;26.10;;
8293;SDS011;4185;41.506;24.938;2023-12-29T05:49:17;53.03;;;24.43;;
8293;SDS011;4185;41.506;24.938;2023-12-29T05:51:44;17.27;;;10.83;;
8293;SDS011;4185;41.506;24.938;2023-12-29T05:54:11;27.97;;;13.67;;
8293;SDS011;4185;41.506;24.938;2023-12-29T05:56:38;16.13;;;11.03;;
8293;SDS011;4185;41.506;24.938;2023-12-29T05:59:04;16.30;;;10.93;;
8293;SDS011;4185;41.506;24.938;2023-12-29T06:01:31;17.50;;;12.13;;
8293;SDS011;4185;41.506;24.938;2023-12-29T06:03:58;13.50;;;8.67;;
8293;SDS011;4185;41.506;24.938;2023-12-29T06:06:27;20.37;;;11.57;;
8293;SDS011;4185;41.506;24.938;2023-12-29T06:08:53;17.53;;;11.03;;
8293;SDS011;4185;41.506;24.938;2023-12-29T06:11:20;11.70;;;8.27;;
8293;SDS011;4185;41.506;24.938;2023-12-29T06:13:47;13.87;;;9.40;;
8293;SDS011;4185;41.506;24.938;2023-12-29T06:16:17;23.17;;;13.87;;
8293;SDS011;4185;41.506;24.938;2023-12-29T06:18:45;35.73;;;21.50;;
8293;SDS011;4185;41.506;24.938;2023-12-29T06:21:12;31.23;;;19.43;;
8293;SDS011;4185;41.506;24.938;2023-12-29T06:23:40;34.03;;;21.40;;
8293;SDS011;4185;41.506;24.938;2023-12-29T06:26:13;39.33;;;23.70;;
8293;SDS011;4185;41.506;24.938;2023-12-29T06:28:41;33.63;;;20.97;;
8293;SDS011;4185;41.506;24.938;2023-12-29T06:31:07;36.70;;;21.07;;
8293;SDS011;4185;41.506;24.938;2023-12-29T06:33:34;30.90;;;17.50;;
8293;SDS011;4185;41.506;24.938;2023-12-29T06:36:01;72.00;;;30.37;;
8293;SDS011;4185;41.506;24.938;2023-12-29T06:38:28;33.40;;;17.90;;
8293;SDS011;4185;41.506;24.938;2023-12-29T06:40:57;23.80;;;14.13;;
8293;SDS011;4185;41.506;24.938;2023-12-29T06:43:24;22.00;;;14.90;;
8293;SDS011;4185;41.506;24.938;2023-12-29T06:45:49;28.43;;;15.90;;
8293;SDS011;4185;41.506;24.938;2023-12-29T06:48:16;14.97;;;11.37;;
8293;SDS011;4185;41.506;24.938;2023-12-29T06:50:43;16.10;;;10.13;;
8293;SDS011;4185;41.506;24.938;2023-12-29T06:53:10;19.60;;;13.00;;
8293;SDS011;4185;41.506;24.938;2023-12-29T06:55:37;39.20;;;23.33;;
8293;SDS011;4185;41.506;24.938;2023-12-29T06:58:05;31.53;;;20.57;;
8293;SDS011;4185;41.506;24.938;2023-12-29T07:00:32;41.03;;;24.50;;
8293;SDS011;4185;41.506;24.938;2023-12-29T07:03:00;51.80;;;27.27;;
8293;SDS011;4185;41.506;24.938;2023-12-29T07:05:27;51.70;;;28.97;;
8293;SDS011;4185;41.506;24.938;2023-12-29T07:07:53;49.83;;;27.33;;
8293;SDS011;4185;41.506;24.938;2023-12-29T07:10:20;44.00;;;24.03;;
8293;SDS011;4185;41.506;24.938;2023-12-29T07:12:47;20.30;;;12.23;;
8293;SDS011;4185;41.506;24.938;2023-12-29T07:15:15;14.40;;;9.70;;
8293;SDS011;4185;41.506;24.938;2023-12-29T07:17:42;22.10;;;12.87;;
8293;SDS011;4185;41.506;24.938;2023-12-29T07:20:09;31.20;;;20.97;;
8293;SDS011;4185;41.506;24.938;2023-12-29T07:22:36;40.73;;;25.77;;
8293;SDS011;4185;41.506;24.938;2023-12-29T07:25:03;40.70;;;23.17;;
8293;SDS011;4185;41.506;24.938;2023-12-29T07:27:31;28.77;;;17.67;;
8293;SDS011;4185;41.506;24.938;2023-12-29T07:29:57;22.67;;;13.87;;
8293;SDS011;4185;41.506;24.938;2023-12-29T07:32:27;17.07;;;10.83;;
8293;SDS011;4185;41.506;24.938;2023-12-29T07:34:54;33.37;;;19.60;;
8293;SDS011;4185;41.506;24.938;2023-12-29T07:37:22;22.13;;;13.87;;
8293;SDS011;4185;41.506;24.938;2023-12-29T07:39:49;27.87;;;15.73;;
8293;SDS011;4185;41.506;24.938;2023-12-29T07:42:17;17.83;;;11.13;;
8293;SDS011;4185;41.506;24.938;2023-12-29T07:44:43;29.10;;;18.57;;
8293;SDS011;4185;41.506;24.938;2023-12-29T07:47:10;29.83;;;18.20;;
8293;SDS011;4185;41.506;24.938;2023-12-29T07:49:40;24.73;;;15.57;;
8293;SDS011;4185;41.506;24.938;2023-12-29T07:52:07;24.93;;;14.50;;
8293;SDS011;4185;41.506;24.938;2023-12-29T07:54:34;17.63;;;11.40;;
8293;SDS011;4185;41.506;24.938;2023-12-29T07:57:01;20.97;;;14.73;;
8293;SDS011;4185;41.506;24.938;2023-12-29T07:59:28;28.33;;;16.27;;
8293;SDS011;4185;41.506;24.938;2023-12-29T08:01:55;25.30;;;14.93;;
8293;SDS011;4185;41.506;24.938;2023-12-29T08:04:22;13.33;;;8.60;;
8293;SDS011;4185;41.506;24.938;2023-12-29T08:06:51;11.50;;;7.63;;
8293;SDS011;4185;41.506;24.938;2023-12-29T08:09:18;13.20;;;8.73;;
8293;SDS011;4185;41.506;24.938;2023-12-29T08:11:46;48.70;;;29.17;;
8293;SDS011;4185;41.506;24.938;2023-12-29T08:14:13;58.13;;;31.27;;
8293;SDS011;4185;41.506;24.938;2023-12-29T08:16:40;51.87;;;28.27;;
8293;SDS011;4185;41.506;24.938;2023-12-29T08:19:07;39.60;;;21.37;;
8293;SDS011;4185;41.506;24.938;2023-12-29T08:21:35;41.37;;;25.23;;
8293;SDS011;4185;41.506;24.938;2023-12-29T08:24:03;51.03;;;27.30;;
8293;SDS011;4185;41.506;24.938;2023-12-29T08:26:30;42.57;;;24.63;;
8293;SDS011;4185;41.506;24.938;2023-12-29T08:28:57;29.77;;;19.50;;
8293;SDS011;4185;41.506;24.938;2023-12-29T08:31:24;26.43;;;17.23;;
8293;SDS011;4185;41.506;24.938;2023-12-29T08:33:52;22.90;;;14.33;;
8293;SDS011;4185;41.506;24.938;2023-12-29T08:36:19;18.83;;;12.67;;
8293;SDS011;4185;41.506;24.938;2023-12-29T08:38:47;33.80;;;20.93;;
8293;SDS011;4185;41.506;24.938;2023-12-29T08:41:15;35.90;;;22.67;;
8293;SDS011;4185;41.506;24.938;2023-12-29T08:43:43;44.77;;;24.57;;
8293;SDS011;4185;41.506;24.938;2023-12-29T08:46:10;37.83;;;24.97;;
8293;SDS011;4185;41.506;24.938;2023-12-29T08:48:36;35.90;;;24.33;;
8293;SDS011;4185;41.506;24.938;2023-12-29T08:51:03;55.07;;;30.40;;
8293;SDS011;4185;41.506;24.938;2023-12-29T08:53:31;41.03;;;24.50;;
8293;SDS011;4185;41.506;24.938;2023-12-29T08:56:00;39.73;;;25.40;;
8293;SDS011;4185;41.506;24.938;2023-12-29T08:58:28;46.33;;;25.90;;
8293;SDS011;4185;41.506;24.938;2023-12-29T09:00:56;40.03;;;27.27;;
8293;SDS011;4185;41.506;24.938;2023-12-29T09:03:23;34.30;;;23.07;;
8293;SDS011;4185;41.506;24.938;2023-12-29T09:05:50;26.50;;;17.50;;
8293;SDS011;4185;41.506;24.938;2023-12-29T09:08:16;18.23;;;13.00;;
8293;SDS011;4185;41.506;24.938;2023-12-29T09:10:43;20.50;;;13.07;;
8293;SDS011;4185;41.506;24.938;2023-12-29T09:13:10;18.97;;;12.13;;
8293;SDS011;4185;41.506;24.938;2023-12-29T09:15:38;21.73;;;14.07;;
8293;SDS011;4185;41.506;24.938;2023-12-29T09:18:05;54.80;;;20.97;;
8293;SDS011;4185;41.506;24.938;2023-12-29T09:20:32;68.07;;;27.23;;
8293;SDS011;4185;41.506;24.938;2023-12-29T09:22:59;38.50;;;19.00;;
8293;SDS011;4185;41.506;24.938;2023-12-29T09:25:26;43.70;;;21.37;;
8293;SDS011;4185;41.506;24.938;2023-12-29T09:27:52;35.10;;;19.17;;
8293;SDS011;4185;41.506;24.938;2023-12-29T09:30:19;20.17;;;13.33;;
8293;SDS011;4185;41.506;24.938;2023-12-29T09:32:47;20.03;;;12.30;;
8293;SDS011;4185;41.506;24.938;2023-12-29T09:35:14;19.53;;;11.90;;
8293;SDS011;4185;41.506;24.938;2023-12-29T09:37:42;62.20;;;30.30;;
8293;SDS011;4185;41.506;24.938;2023-12-29T09:40:10;37.77;;;22.80;;
8293;SDS011;4185;41.506;24.938;2023-12-29T09:42:37;35.33;;;21.37;;
8293;SDS011;4185;41.506;24.938;2023-12-29T09:45:07;27.27;;;16.43;;
8293;SDS011;4185;41.506;24.938;2023-12-29T09:47:38;34.57;;;18.73;;
8293;SDS011;4185;41.506;24.938;2023-12-29T09:50:09;31.33;;;17.87;;
8293;SDS011;4185;41.506;24.938;2023-12-29T09:52:37;34.73;;;20.87;;
8293;SDS011;4185;41.506;24.938;2023-12-29T09:55:07;36.87;;;20.30;;
8293;SDS011;4185;41.506;24.938;2023-12-29T09:57:36;25.60;;;16.53;;
8293;SDS011;4185;41.506;24.938;2023-12-29T10:00:04;32.67;;;20.30;;
8293;SDS011;4185;41.506;24.938;2023-12-29T10:02:32;29.30;;;18.17;;
8293;SDS011;4185;41.506;24.938;2023-12-29T10:05:00;20.67;;;14.63;;
8293;SDS011;4185;41.506;24.938;2023-12-29T10:07:31;11.17;;;7.60;;
8293;SDS011;4185;41.506;24.938;2023-12-29T10:10:02;22.30;;;13.73;;
8293;SDS011;4185;41.506;24.938;2023-12-29T10:12:31;14.53;;;10.13;;
8293;SDS011;4185;41.506;24.938;2023-12-29T10:15:03;8.53;;;6.67;;
8293;SDS011;4185;41.506;24.938;2023-12-29T10:17:36;13.57;;;9.47;;
8293;SDS011;4185;41.506;24.938;2023-12-29T10:20:12;17.57;;;11.17;;
8293;SDS011;4185;41.506;24.938;2023-12-29T10:22:51;23.67;;;14.13;;
8293;SDS011;4185;41.506;24.938;2023-12-29T10:25:23;21.13;;;11.17;;
8293;SDS011;4185;41.506;24.938;2023-12-29T10:27:50;15.53;;;11.07;;
8293;SDS011;4185;41.506;24.938;2023-12-29T10:30:18;18.00;;;11.47;;
8293;SDS011;4185;41.506;24.938;2023-12-29T10:32:49;19.60;;;13.07;;
8293;SDS011;4185;41.506;24.938;2023-12-29T10:35:15;29.70;;;13.47;;
8293;SDS011;4185;41.506;24.938;2023-12-29T10:37:43;15.37;;;9.43;;
8293;SDS011;4185;41.506;24.938;2023-12-29T10:40:14;9.63;;;6.00;;
8293;SDS011;4185;41.506;24.938;2023-12-29T10:42:51;21.40;;;13.70;;
8293;SDS011;4185;41.506;24.938;2023-12-29T10:45:20;19.80;;;11.50;;
8293;SDS011;4185;41.506;24.938;2023-12-29T10:47:47;25.30;;;16.07;;
8293;SDS011;4185;41.506;24.938;2023-12-29T10:50:14;23.10;;;15.90;;
8293;SDS011;4185;41.506;24.938;2023-12-29T10:52:41;26.73;;;16.60;;
8293;SDS011;4185;41.506;24.938;2023-12-29T10:55:08;25.70;;;16.83;;
8293;SDS011;4185;41.506;24.938;2023-12-29T10:57:39;28.40;;;18.23;;
8293;SDS011;4185;41.506;24.938;2023-12-29T11:00:07;32.97;;;19.30;;
8293;SDS011;4185;41.506;24.938;2023-12-29T11:02:37;24.70;;;15.17;;
8293;SDS011;4185;41.506;24.938;2023-12-29T11:05:04;5.93;;;4.70;;
8293;SDS011;4185;41.506;24.938;2023-12-29T11:07:33;23.67;;;15.67;;
8293;SDS011;4185;41.506;24.938;2023-12-29T11:10:02;28.70;;;18.57;;
8293;SDS011;4185;41.506;24.938;2023-12-29T11:12:30;26.70;;;18.37;;
8293;SDS011;4185;41.506;24.938;2023-12-29T11:15:01;21.90;;;14.60;;
8293;SDS011;4185;41.506;24.938;2023-12-29T11:17:29;17.13;;;10.17;;
8293;SDS011;4185;41.506;24.938;2023-12-29T11:19:57;12.73;;;8.20;;
8293;SDS011;4185;41.506;24.938;2023-12-29T11:22:25;18.13;;;12.13;;
8293;SDS011;4185;41.506;24.938;2023-12-29T11:24:54;23.40;;;16.07;;
8293;SDS011;4185;41.506;24.938;2023-12-29T11:27:23;27.83;;;17.20;;
8293;SDS011;4185;41.506;24.938;2023-12-29T11:29:53;17.93;;;11.67;;
8293;SDS011;4185;41.506;24.938;2023-12-29T11:32:24;18.53;;;12.93;;
8293;SDS011;4185;41.506;24.938;2023-12-29T11:34:58;23.53;;;14.80;;
8293;SDS011;4185;41.506;24.938;2023-12-29T11:37:36;21.43;;;14.70;;
8293;SDS011;4185;41.506;24.938;2023-12-29T11:40:18;27.50;;;15.23;;
8293;SDS011;4185;41.506;24.938;2023-12-29T11:42:49;27.77;;;18.50;;
8293;SDS011;4185;41.506;24.938;2023-12-29T11:45:24;30.77;;;20.50;;
8293;SDS011;4185;41.506;24.938;2023-12-29T11:47:53;22.97;;;16.13;;
8293;SDS011;4185;41.506;24.938;2023-12-29T11:50:28;34.03;;;20.60;;
8293;SDS011;4185;41.506;24.938;2023-12-29T11:52:59;30.53;;;19.53;;
8293;SDS011;4185;41.506;24.938;2023-12-29T11:55:31;55.13;;;31.03;;
8293;SDS011;4185;41.506;24.938;2023-12-29T11:58:00;23.00;;;13.23;;
8293;SDS011;4185;41.506;24.938;2023-12-29T12:00:44;37.00;;;24.93;;
8293;SDS011;4185;41.506;24.938;2023-12-29T12:03:25;28.47;;;17.57;;
8293;SDS011;4185;41.506;24.938;2023-12-29T12:05:55;20.63;;;14.40;;
8293;SDS011;4185;41.506;24.938;2023-12-29T12:08:27;14.50;;;11.40;;
8293;SDS011;4185;41.506;24.938;2023-12-29T12:10:55;17.67;;;11.70;;
8293;SDS011;4185;41.506;24.938;2023-12-29T12:19:19;32.53;;;21.40;;
8293;SDS011;4185;41.506;24.938;2023-12-29T12:21:46;29.90;;;19.40;;
8293;SDS011;4185;41.506;24.938;2023-12-29T12:24:14;30.50;;;20.20;;
8293;SDS011;4185;41.506;24.938;2023-12-29T12:26:44;21.57;;;15.13;;
8293;SDS011;4185;41.506;24.938;2023-12-29T12:29:12;17.30;;;11.80;;
8293;SDS011;4185;41.506;24.938;2023-12-29T12:31:51;10.07;;;6.93;;
8293;SDS011;4185;41.506;24.938;2023-12-29T12:34:20;9.90;;;6.03;;
8293;SDS011;4185;41.506;24.938;2023-12-29T12:36:50;8.70;;;7.13;;
8293;SDS011;4185;41.506;24.938;2023-12-29T12:39:17;3.80;;;3.37;;
8293;SDS011;4185;41.506;24.938;2023-12-29T12:41:45;5.97;;;4.40;;
8293;SDS011;4185;41.506;24.938;2023-12-29T12:44:12;4.10;;;3.17;;
8293;SDS011;4185;41.506;24.938;2023-12-29T12:46:40;3.73;;;3.10;;
8293;SDS011;4185;41.506;24.938;2023-12-29T12:49:11;4.40;;;3.73;;
8293;SDS011;4185;41.506;24.938;2023-12-29T12:51:39;7.17;;;6.10;;
8293;SDS011;4185;41.506;24.938;2023-12-29T12:54:06;5.27;;;4.73;;
8293;SDS011;4185;41.506;24.938;2023-12-29T12:56:33;7.78;;;6.05;;
8293;SDS011;4185;41.506;24.938;2023-12-29T12:59:01;8.68;;;7.60;;
8293;SDS011;4185;41.506;24.938;2023-12-29T13:01:29;24.58;;;19.30;;
8293;SDS011;4185;41.506;24.938;2023-12-29T13:04:00;29.65;;;25.17;;
8293;SDS011;4185;41.506;24.938;2023-12-29T13:06:29;23.67;;;21.20;;
8293;SDS011;4185;41.506;24.938;2023-12-29T13:08:57;24.40;;;19.75;;
8293;SDS011;4185;41.506;24.938;2023-12-29T13:11:25;25.70;;;20.90;;
8293;SDS011;4185;41.506;24.938;2023-12-29T13:13:51;28.35;;;23.65;;
8293;SDS011;4185;41.506;24.938;2023-12-29T13:16:28;31.63;;;23.83;;
8293;SDS011;4185;41.506;24.938;2023-12-29T13:18:55;24.00;;;20.48;;
8293;SDS011;4185;41.506;24.938;2023-12-29T13:21:22;23.95;;;20.23;;
8293;SDS011;4185;41.506;24.938;2023-12-29T13:23:49;21.15;;;17.35;;
8293;SDS011;4185;41.506;24.938;2023-12-29T13:26:17;20.65;;;16.95;;
8293;SDS011;4185;41.506;24.938;2023-12-29T13:28:45;21.65;;;17.92;;
8293;SDS011;4185;41.506;24.938;2023-12-29T13:31:12;23.00;;;18.13;;
8293;SDS011;4185;41.506;24.938;2023-12-29T13:33:44;22.90;;;17.23;;
8293;SDS011;4185;41.506;24.938;2023-12-29T13:36:18;21.50;;;17.67;;
8293;SDS011;4185;41.506;24.938;2023-12-29T13:38:50;32.37;;;22.93;;
8293;SDS011;4185;41.506;24.938;2023-12-29T13:41:21;34.17;;;22.93;;
8293;SDS011;4185;41.506;24.938;2023-12-29T13:43:50;26.77;;;19.60;;
8293;SDS011;4185;41.506;24.938;2023-12-29T13:46:21;57.47;;;29.30;;
8293;SDS011;4185;41.506;24.938;2023-12-29T13:48:48;31.07;;;19.93;;
8293;SDS011;4185;41.506;24.938;2023-12-29T13:51:16;25.97;;;18.07;;
8293;SDS011;4185;41.506;24.938;2023-12-29T13:53:43;29.83;;;18.57;;
8293;SDS011;4185;41.506;24.938;2023-12-29T13:56:10;48.13;;;27.47;;
8293;SDS011;4185;41.506;24.938;2023-12-29T13:58:39;24.83;;;17.07;;
8293;SDS011;4185;41.506;24.938;2023-12-29T14:01:06;28.87;;;19.43;;
8293;SDS011;4185;41.506;24.938;2023-12-29T14:03:37;30.33;;;20.50;;
8293;SDS011;4185;41.506;24.938;2023-12-29T14:06:11;93.73;;;47.37;;
8293;SDS011;4185;41.506;24.938;2023-12-29T14:08:40;45.07;;;29.73;;
8293;SDS011;4185;41.506;24.938;2023-12-29T14:11:10;103.33;;;59.63;;
8293;SDS011;4185;41.506;24.938;2023-12-29T14:13:42;66.67;;;42.33;;
8293;SDS011;4185;41.506;24.938;2023-12-29T14:16:09;52.27;;;30.80;;
8293;SDS011;4185;41.506;24.938;2023-12-29T14:18:48;224.57;;;117.90;;
8293;SDS011;4185;41.506;24.938;2023-12-29T14:21:22;143.63;;;70.63;;
8293;SDS011;4185;41.506;24.938;2023-12-29T14:23:57;29.23;;;18.37;;
8293;SDS011;4185;41.506;24.938;2023-12-29T14:26:26;87.30;;;47.83;;
8293;SDS011;4185;41.506;24.938;2023-12-29T14:29:01;49.13;;;30.63;;
8293;SDS011;4185;41.506;24.938;2023-12-29T14:31:28;24.83;;;18.03;;
8293;SDS011;4185;41.506;24.938;2023-12-29T14:33:58;25.73;;;18.50;;
8293;SDS011;4185;41.506;24.938;2023-12-29T14:36:25;94.73;;;55.07;;
8293;SDS011;4185;41.506;24.938;2023-12-29T14:38:51;52.83;;;34.03;;
8293;SDS011;4185;41.506;24.938;2023-12-29T14:41:18;58.23;;;38.40;;
8293;SDS011;4185;41.506;24.938;2023-12-29T14:43:45;35.37;;;23.57;;
8293;SDS011;4185;41.506;24.938;2023-12-29T14:46:13;40.07;;;27.53;;
8293;SDS011;4185;41.506;24.938;2023-12-29T14:48:40;62.37;;;40.23;;
8293;SDS011;4185;41.506;24.938;2023-12-29T14:51:07;48.70;;;30.27;;
8293;SDS011;4185;41.506;24.938;2023-12-29T14:53:34;44.03;;;30.90;;